createdAt,value
2022-12-09T00:02:08.445Z,3.20
2022-12-09T00:07:11.294Z,3.10
2022-12-09T00:12:14.209Z,3.10
2022-12-09T00:17:16.998Z,3.10
2022-12-09T00:22:20.017Z,3.00
2022-12-09T00:27:23.080Z,3.00
2022-12-09T00:32:26.096Z,2.90
2022-12-09T00:37:29.731Z,2.90
2022-12-09T00:42:34.459Z,2.90
2022-12-09T00:47:37.395Z,2.90
2022-12-09T00:52:40.211Z,2.80
2022-12-09T00:57:43.190Z,2.90
2022-12-09T01:02:45.993Z,2.80
2022-12-09T01:07:49.120Z,2.80
2022-12-09T01:12:51.765Z,2.80
2022-12-09T01:17:54.712Z,2.70
2022-12-09T01:22:57.355Z,2.70
2022-12-09T01:28:01.633Z,2.70
2022-12-09T01:33:04.556Z,2.70
2022-12-09T01:38:07.957Z,2.70
2022-12-09T01:43:18.554Z,2.70
2022-12-09T01:48:25.048Z,2.50
2022-12-09T01:53:34.548Z,2.50
2022-12-09T01:58:37.371Z,2.60
2022-12-09T02:03:40.327Z,2.60
2022-12-09T02:08:44.895Z,2.40
2022-12-09T02:14:14.263Z,2.50
2022-12-09T02:20:02.118Z,2.60
2022-12-09T02:25:11.629Z,2.60
2022-12-09T02:30:24.020Z,2.60
2022-12-09T02:35:48.767Z,2.60
2022-12-09T02:40:54.886Z,2.60
2022-12-09T02:46:00.382Z,2.50
2022-12-09T02:51:08.952Z,2.60
2022-12-09T02:56:15.060Z,2.60
2022-12-09T03:02:16.848Z,2.60
2022-12-09T03:07:19.997Z,2.60
2022-12-09T03:12:25.191Z,2.50
2022-12-09T03:17:34.048Z,2.40
2022-12-09T03:22:40.597Z,2.50
2022-12-09T03:28:06.175Z,2.50
2022-12-09T03:33:10.377Z,2.50
2022-12-09T03:38:17.433Z,2.40
2022-12-09T03:43:26.101Z,2.40
2022-12-09T03:48:29.121Z,2.30
2022-12-09T03:53:48.659Z,2.10
2022-12-09T03:58:54.684Z,2.10
2022-12-09T04:03:58.313Z,2.10
2022-12-09T04:09:02.795Z,2.00
2022-12-09T04:14:10.423Z,1.90
2022-12-09T04:19:16.735Z,1.90
2022-12-09T04:24:19.560Z,1.80
2022-12-09T04:29:22.408Z,1.70
2022-12-09T04:34:25.274Z,1.60
2022-12-09T04:39:28.276Z,1.50
2022-12-09T04:44:31.060Z,1.50
2022-12-09T04:49:33.793Z,1.40
2022-12-09T04:54:36.682Z,1.40
2022-12-09T04:59:39.550Z,1.30
2022-12-09T05:04:47.600Z,1.20
2022-12-09T05:09:50.886Z,1.20
2022-12-09T05:14:54.120Z,0.90
2022-12-09T05:19:56.907Z,0.90
2022-12-09T05:24:59.932Z,0.80
2022-12-09T05:30:02.787Z,0.60
2022-12-09T05:35:06.381Z,0.50
2022-12-09T05:40:10.103Z,0.40
2022-12-09T05:45:13.248Z,0.20
2022-12-09T05:50:16.495Z,0.20
2022-12-09T05:55:19.698Z,0.10
2022-12-09T06:00:22.767Z,-0.10
2022-12-09T06:05:25.669Z,-0.10
2022-12-09T06:10:28.788Z,-0.20
2022-12-09T06:15:33.672Z,-0.40
2022-12-09T06:20:41.717Z,-0.50
2022-12-09T06:25:46.458Z,-0.50
2022-12-09T06:30:49.531Z,-0.60
2022-12-09T06:35:52.731Z,-0.70
2022-12-09T06:40:56.469Z,-0.60
2022-12-09T06:45:59.469Z,-0.70
2022-12-09T06:51:02.561Z,-0.70
2022-12-09T06:56:11.785Z,-0.60
2022-12-09T07:01:24.787Z,-0.50
2022-12-09T07:06:39.557Z,-0.70
2022-12-09T07:11:43.897Z,-0.70
2022-12-09T07:16:47.329Z,-0.60
2022-12-09T07:21:51.539Z,-0.70
2022-12-09T07:26:54.516Z,-0.50
2022-12-09T07:31:57.837Z,-0.40
2022-12-09T07:37:01.212Z,-0.10
2022-12-09T07:42:04.544Z,0.20
2022-12-09T07:47:19.912Z,0.40
2022-12-09T07:52:23.547Z,0.50
2022-12-09T07:57:26.743Z,1.20
2022-12-09T08:02:29.669Z,1.70
2022-12-09T08:07:37.334Z,2.40
2022-12-09T08:12:43.735Z,2.70
2022-12-09T08:17:47.234Z,3.30
2022-12-09T08:22:50.615Z,3.70
2022-12-09T08:27:53.623Z,4.50
2022-12-09T08:32:57.166Z,6.00
2022-12-09T08:38:00.273Z,6.60
2022-12-09T08:43:10.222Z,6.60
2022-12-09T08:48:13.523Z,8.70
2022-12-09T08:53:16.643Z,12.10
2022-12-09T08:58:19.388Z,13.80
2022-12-09T09:03:22.604Z,16.10
2022-12-09T09:08:25.968Z,15.00
2022-12-09T09:13:29.288Z,13.10
2022-12-09T09:18:32.520Z,13.00
2022-12-09T09:23:36.059Z,12.70
2022-12-09T09:28:39.981Z,13.40
2022-12-09T09:33:43.602Z,13.10
2022-12-09T09:38:48.420Z,13.60
2022-12-09T09:43:54.530Z,13.20
2022-12-09T09:48:59.151Z,14.40
2022-12-09T09:54:08.179Z,16.60
2022-12-09T09:59:21.295Z,16.00
2022-12-09T10:04:56.537Z,16.50
2022-12-09T10:10:19.640Z,17.00
2022-12-09T10:15:34.941Z,17.20
2022-12-09T10:20:38.507Z,16.90
2022-12-09T10:25:51.142Z,16.50
2022-12-09T10:30:55.969Z,15.70
2022-12-09T10:35:59.479Z,15.50
2022-12-09T10:41:54.081Z,12.70
2022-12-09T10:47:19.394Z,11.90
2022-12-09T10:52:28.416Z,11.30
2022-12-09T10:57:31.418Z,10.80
2022-12-09T11:02:35.705Z,11.00
2022-12-09T11:07:38.657Z,11.30
2022-12-09T11:12:42.294Z,10.70
2022-12-09T11:17:58.563Z,12.30
2022-12-09T11:23:13.562Z,13.70
2022-12-09T11:28:17.273Z,13.40
2022-12-09T11:33:29.785Z,12.30
2022-12-09T11:38:48.944Z,12.80
2022-12-09T11:43:55.521Z,12.70
2022-12-09T11:49:17.265Z,13.50
2022-12-09T11:54:30.275Z,10.60
2022-12-09T11:59:40.897Z,9.40
2022-12-09T12:05:22.042Z,8.40
2022-12-09T12:10:47.266Z,7.80
2022-12-09T12:16:00.745Z,7.00
2022-12-09T12:21:18.655Z,6.50
2022-12-09T12:26:32.065Z,6.40
2022-12-09T12:31:48.999Z,6.60
2022-12-09T12:37:34.853Z,6.40
2022-12-09T12:43:11.207Z,6.10
2022-12-09T12:48:27.135Z,5.80
2022-12-09T12:53:38.714Z,5.90
2022-12-09T12:59:05.835Z,5.80
2022-12-09T13:04:22.065Z,5.70
2022-12-09T13:09:46.365Z,5.80
2022-12-09T13:14:53.382Z,5.80
2022-12-09T13:20:00.987Z,5.60
2022-12-09T13:25:40.902Z,5.80
2022-12-09T13:31:13.740Z,5.80
2022-12-09T13:36:42.498Z,5.60
2022-12-09T13:42:04.480Z,5.50
2022-12-09T13:47:15.865Z,5.30
2022-12-09T13:52:43.326Z,5.10
2022-12-09T13:58:01.436Z,4.80
2022-12-09T14:03:29.936Z,4.70
2022-12-09T14:08:45.858Z,4.60
2022-12-09T14:13:48.835Z,4.60
2022-12-09T14:18:52.789Z,4.60
2022-12-09T14:24:09.258Z,4.50
2022-12-09T14:29:12.208Z,4.40
2022-12-09T14:35:03.986Z,4.40
2022-12-09T14:40:15.970Z,4.40
2022-12-09T14:45:44.449Z,4.40
2022-12-09T14:50:47.970Z,4.30
2022-12-09T14:55:51.577Z,4.30
2022-12-09T15:01:02.920Z,4.10
2022-12-09T15:06:12.448Z,4.00
2022-12-09T15:11:35.238Z,3.90
2022-12-09T15:16:38.306Z,3.80
2022-12-09T15:21:41.258Z,3.70
2022-12-09T15:26:55.419Z,3.50
2022-12-09T15:32:00.049Z,3.40
2022-12-09T15:37:06.408Z,3.30
2022-12-09T15:42:18.317Z,3.10
2022-12-09T15:47:43.058Z,2.90
2022-12-09T15:52:53.557Z,2.80
2022-12-09T15:58:00.790Z,2.40
2022-12-09T16:03:03.977Z,2.30
2022-12-09T16:08:07.178Z,2.20
2022-12-09T16:13:15.637Z,2.10
2022-12-09T16:18:46.118Z,2.00
2022-12-09T16:23:53.987Z,1.80
2022-12-09T16:29:05.339Z,1.80
2022-12-09T16:34:20.437Z,1.70
2022-12-09T16:39:26.089Z,1.70
2022-12-09T16:44:38.890Z,1.60
2022-12-09T16:49:45.667Z,1.50
2022-12-09T16:54:50.488Z,1.50
2022-12-09T16:59:53.812Z,1.40
2022-12-09T17:04:56.739Z,1.40
2022-12-09T17:10:00.771Z,1.40
2022-12-09T17:15:04.209Z,1.40
2022-12-09T17:20:08.224Z,1.40
2022-12-09T17:25:11.281Z,1.50
2022-12-09T17:30:14.509Z,1.50
2022-12-09T17:35:17.949Z,1.40
2022-12-09T17:40:21.130Z,1.40
2022-12-09T17:45:24.160Z,1.40
2022-12-09T17:50:27.275Z,1.40
2022-12-09T17:55:30.523Z,1.40
2022-12-09T18:00:34.090Z,1.30
2022-12-09T18:05:38.642Z,1.30
2022-12-09T18:10:42.410Z,1.30
2022-12-09T18:15:48.512Z,1.30
2022-12-09T18:20:54.728Z,1.40
2022-12-09T18:25:58.655Z,1.30
2022-12-09T18:31:06.296Z,1.30
2022-12-09T18:36:18.819Z,1.30
2022-12-09T18:41:24.991Z,1.30
2022-12-09T18:46:39.444Z,1.30
2022-12-09T18:51:44.439Z,1.30
2022-12-09T18:56:47.498Z,1.30
2022-12-09T19:01:51.108Z,1.30
2022-12-09T19:06:56.680Z,1.30
2022-12-09T19:12:16.531Z,1.30
2022-12-09T19:17:23.669Z,1.30
2022-12-09T19:22:26.711Z,1.30
2022-12-09T19:27:29.659Z,1.30
2022-12-09T19:32:52.485Z,1.30
2022-12-09T19:38:01.068Z,1.30
2022-12-09T19:43:04.339Z,1.30
2022-12-09T19:48:07.381Z,1.30
2022-12-09T19:53:10.340Z,1.40
2022-12-09T19:58:13.252Z,1.40
2022-12-09T20:03:16.048Z,1.30
2022-12-09T20:08:19.053Z,1.30
2022-12-09T20:13:24.209Z,1.30
2022-12-09T20:18:30.033Z,1.30
2022-12-09T20:23:34.410Z,1.30
2022-12-09T20:28:39.039Z,1.30
2022-12-09T20:33:41.979Z,1.30
2022-12-09T20:38:49.740Z,1.30
2022-12-09T20:43:55.656Z,1.30
2022-12-09T20:48:59.640Z,1.40
2022-12-09T20:54:03.263Z,1.40
2022-12-09T20:59:07.060Z,1.30
2022-12-09T21:04:09.999Z,1.40
2022-12-09T21:09:17.859Z,1.40
2022-12-09T21:14:20.999Z,1.40
2022-12-09T21:19:26.040Z,1.40
2022-12-09T21:24:29.050Z,1.40
2022-12-09T21:29:32.602Z,1.40
2022-12-09T21:34:36.208Z,1.40
2022-12-09T21:39:39.155Z,1.40
2022-12-09T21:44:42.683Z,1.50
2022-12-09T21:49:45.494Z,1.50
2022-12-09T21:54:55.011Z,1.50
2022-12-09T21:59:58.102Z,1.50
2022-12-09T22:05:01.088Z,1.50
2022-12-09T22:10:04.015Z,1.50
2022-12-09T22:15:07.418Z,1.60
2022-12-09T22:20:54.061Z,1.60
2022-12-09T22:25:35.041Z,1.50
2022-12-09T22:30:38.061Z,1.60
2022-12-09T22:35:40.888Z,1.50
2022-12-09T22:40:43.561Z,1.60
2022-12-09T22:45:46.387Z,1.60
2022-12-09T22:50:49.232Z,1.60
2022-12-09T22:55:52.057Z,1.60
2022-12-09T23:00:55.654Z,1.60
2022-12-09T23:06:01.530Z,1.50
2022-12-09T23:11:07.272Z,1.60
2022-12-09T23:16:16.297Z,1.50
2022-12-09T23:21:24.746Z,1.60
2022-12-09T23:26:31.336Z,1.60
2022-12-09T23:31:37.096Z,1.60
2022-12-09T23:36:42.632Z,1.60
2022-12-09T23:41:46.403Z,1.60
2022-12-09T23:46:49.663Z,1.60
2022-12-09T23:51:52.519Z,1.60
2022-12-09T23:56:55.224Z,1.60
